John C. Munro Hamilton International Airport
CYHM : now visible

Airfield :











YOU CAN JOIN US ON...

 
LOGIN :

Register | Disclaimer

   EN    FR    IT 

 









Legend :    VFR   Marginal VFR   IFR   Intensive IFR   Very Intensive IFR
Visi :
Ceiling :
>= 8 km
>= 3000ft
5 to 8 km
1000 to 3000 ft
1500m to 5 km
500 to 1000 ft
800 to 1500m
200 to 500 ft
< 800m
< 200 ft
Symbols :   Thunderstorms  Fog  Heavy snow  Heavy precipitations  Wind > 20 kt






- Airport Elevation : 780 ft
- IATA code : YHM


CYHM - John C. Munro Hamilton International

CURRENT METAR :
  • 191900Z 29014G20KT 15SM FEW024 FEW062 BKN110 BKN250 M05/M12 A2993 RMK CU1SC1AC3CI1 SLP148

EXPIRED METARs :
  • 191800Z 30011G16KT 15SM FEW017 SCT025 BKN120 M04/M10 A2990 RMK SC1SC2AC4 SLP137
  • 191700Z 29008KT 15SM -SN SCT015 BKN029 OVC042 M04/M07 A2987 RMK SC3SC2SC3 SLP128
  • 191651Z 29010KT 15SM -SN SCT013 BKN036 OVC045 M04/M07 A2987 RMK SC3SC3SC2 SLP126
  • 191640Z 30008KT 4SM -SN FEW008 BKN013 OVC033 M04/M06 A2987 RMK CF1SC4SC3 SLP125
  • 191627Z 28009G17KT 1 1/2SM -SN SCT009 OVC013 M04/M06 A2987 RMK SN2CF2SC4 SLP125

TAF TAF CYHM
Valid from the 19 at 18:00 until the 20 at 18:00 UTC


191741Z 1918/2018 30012G22KT P6SM BKN030 BKN050
TEMPO 1918/1922 5SM -SHSN BKN015 OVC040
FM192200 33010KT P6SM BKN030
TEMPO 1922/2003 BKN020
FM200300 01006KT P6SM BKN020
TEMPO 2003/2009 SCT020
FM200900 35005KT P6SM FEW020 RMK NXT FCST BY 200000Z



MET'MAP, your aeronautical weather chart ! - Copyright ORBIFLY December 2007 - Disclaimer

ORBIFLY MET'MAP TEAM :

Programming & Development : Alexandra Zaïnal
Concept & original design : Baudouin d'Aumeries
Assistance for programming : Marc-Olivier Méhu
Technical & hardware support : Manuel Goepfert

Contact : metmap@orbifly.com




SOURCES & CREDITS :

   NOAA       Earth
Advisory